createdAt,value
2023-02-01T00:01:10.834Z,109.38
2023-02-01T00:03:35.760Z,114.18
2023-02-01T00:06:02.165Z,114.00
2023-02-01T00:08:26.734Z,109.38
2023-02-01T00:10:51.120Z,111.00
2023-02-01T00:13:15.804Z,105.85
2023-02-01T00:15:40.110Z,111.80
2023-02-01T00:18:04.831Z,118.65
2023-02-01T00:20:29.511Z,121.65
2023-02-01T00:22:55.373Z,125.03
2023-02-01T00:25:19.846Z,122.10
2023-02-01T00:27:44.672Z,113.97
2023-02-01T00:30:10.523Z,122.50
2023-02-01T00:32:35.070Z,118.03
2023-02-01T00:34:59.561Z,115.18
2023-02-01T00:37:24.356Z,120.35
2023-02-01T00:39:50.776Z,111.88
2023-02-01T00:42:15.253Z,108.68
2023-02-01T00:44:39.906Z,114.35
2023-02-01T00:47:05.451Z,110.75
2023-02-01T00:49:30.494Z,109.70
2023-02-01T00:51:54.902Z,116.75
2023-02-01T00:54:19.363Z,118.93
2023-02-01T00:56:45.385Z,113.55
2023-02-01T00:59:12.794Z,119.90
2023-02-01T01:01:37.467Z,117.22
2023-02-01T01:04:02.737Z,114.43
2023-02-01T01:06:29.711Z,112.57
2023-02-01T01:08:55.125Z,118.40
2023-02-01T01:11:21.627Z,119.40
2023-02-01T01:13:49.207Z,123.22
2023-02-01T01:16:13.925Z,122.28
2023-02-01T01:18:39.941Z,119.30
2023-02-01T01:21:06.492Z,120.80
2023-02-01T01:23:30.876Z,111.50
2023-02-01T01:25:55.576Z,121.40
2023-02-01T01:28:19.947Z,126.25
2023-02-01T01:30:46.177Z,117.07
2023-02-01T01:33:11.009Z,126.70
2023-02-01T01:35:35.826Z,120.18
2023-02-01T01:38:01.135Z,113.68
2023-02-01T01:40:25.972Z,118.65
2023-02-01T01:42:54.364Z,109.57
2023-02-01T01:45:26.336Z,112.25
2023-02-01T01:47:55.511Z,110.38
2023-02-01T01:50:25.367Z,115.53
2023-02-01T01:52:53.140Z,107.93
2023-02-01T01:55:19.018Z,96.63
2023-02-01T01:57:46.413Z,105.20
2023-02-01T02:00:13.481Z,107.47
2023-02-01T02:02:39.314Z,102.15
2023-02-01T02:05:06.631Z,107.95
2023-02-01T02:10:01.421Z,125.63
2023-02-01T02:12:27.004Z,119.40
2023-02-01T02:14:51.888Z,128.68
2023-02-01T02:17:31.693Z,125.95
2023-02-01T02:20:44.426Z,122.20
2023-02-01T02:23:44.595Z,116.63
2023-02-01T02:26:57.600Z,123.68
2023-02-01T02:29:53.379Z,117.65
2023-02-01T02:32:44.146Z,121.07
2023-02-01T02:35:17.236Z,121.93
2023-02-01T02:37:47.967Z,126.25
2023-02-01T02:40:27.173Z,122.60
2023-02-01T02:43:16.837Z,124.73
2023-02-01T02:46:04.503Z,118.95
2023-02-01T02:48:35.216Z,124.60
2023-02-01T02:51:25.226Z,122.10
2023-02-01T02:56:53.111Z,125.93
2023-02-01T02:59:40.901Z,133.68
2023-02-01T03:02:23.535Z,137.13
2023-02-01T03:04:48.112Z,135.60
2023-02-01T03:07:18.460Z,125.85
2023-02-01T03:09:46.256Z,136.18
2023-02-01T03:12:33.432Z,124.82
2023-02-01T03:15:03.457Z,123.78
2023-02-01T03:17:32.906Z,122.82
2023-02-01T03:20:01.877Z,124.63
2023-02-01T03:22:32.850Z,118.30
2023-02-01T03:25:01.676Z,114.28
2023-02-01T03:27:32.821Z,114.78
2023-02-01T03:30:06.836Z,116.72
2023-02-01T03:32:52.396Z,100.03
2023-02-01T03:35:17.100Z,112.70
2023-02-01T03:37:43.565Z,105.05
2023-02-01T03:40:11.558Z,111.18
2023-02-01T03:42:43.045Z,107.05
2023-02-01T03:45:12.641Z,108.70
2023-02-01T03:47:41.993Z,98.80
2023-02-01T03:50:10.627Z,103.40
2023-02-01T03:52:40.937Z,98.93
2023-02-01T03:55:09.309Z,103.78
2023-02-01T03:57:39.486Z,104.63
2023-02-01T04:02:38.378Z,97.20
2023-02-01T04:05:02.963Z,100.70
2023-02-01T04:07:27.412Z,96.45
2023-02-01T04:09:51.803Z,95.05
2023-02-01T04:12:17.808Z,98.25
2023-02-01T04:14:42.329Z,102.65
2023-02-01T04:17:06.633Z,103.18
2023-02-01T04:19:31.209Z,111.38
2023-02-01T04:21:55.629Z,101.53
2023-02-01T04:24:20.105Z,103.60
2023-02-01T04:26:45.763Z,104.55
2023-02-01T04:29:13.004Z,98.00
2023-02-01T04:31:37.738Z,110.75
2023-02-01T04:34:02.476Z,108.38
2023-02-01T04:36:26.922Z,90.45
2023-02-01T04:38:51.649Z,96.35
2023-02-01T04:41:16.741Z,95.32
2023-02-01T04:43:41.339Z,100.60
2023-02-01T04:46:07.421Z,95.15
2023-02-01T04:48:31.892Z,92.88
2023-02-01T04:50:56.252Z,92.60
2023-02-01T04:53:20.809Z,100.22
2023-02-01T04:55:45.886Z,103.70
2023-02-01T04:58:10.741Z,97.05
2023-02-01T05:00:35.435Z,96.50
2023-02-01T05:03:01.573Z,89.43
2023-02-01T05:05:26.164Z,98.13
2023-02-01T05:07:50.731Z,93.85
2023-02-01T05:10:15.443Z,85.65
2023-02-01T05:12:57.337Z,85.80
2023-02-01T05:15:21.757Z,89.05
2023-02-01T05:17:46.303Z,89.28
2023-02-01T05:20:13.757Z,76.18
2023-02-01T05:22:38.189Z,84.43
2023-02-01T05:25:02.723Z,83.57
2023-02-01T05:27:27.954Z,78.18
2023-02-01T05:29:52.475Z,79.68
2023-02-01T05:32:22.686Z,82.15
2023-02-01T05:34:47.759Z,72.55
2023-02-01T05:37:13.788Z,80.90
2023-02-01T05:39:38.388Z,78.25
2023-02-01T05:42:02.850Z,65.45
2023-02-01T05:44:27.327Z,70.45
2023-02-01T05:46:53.370Z,64.78
2023-02-01T05:49:17.835Z,61.83
2023-02-01T05:51:42.325Z,69.43
2023-02-01T05:54:08.263Z,60.55
2023-02-01T05:56:32.700Z,67.78
2023-02-01T05:58:57.389Z,63.45
2023-02-01T06:01:22.101Z,66.63
2023-02-01T06:03:46.705Z,68.80
2023-02-01T06:06:11.420Z,61.58
2023-02-01T06:08:36.046Z,59.15
2023-02-01T06:11:02.628Z,56.20
2023-02-01T06:13:27.195Z,63.13
2023-02-01T06:15:52.356Z,58.00
2023-02-01T06:18:17.001Z,60.15
2023-02-01T06:20:41.704Z,53.45
2023-02-01T06:23:06.842Z,60.22
2023-02-01T06:25:31.673Z,56.60
2023-02-01T06:27:58.323Z,52.28
2023-02-01T06:30:23.120Z,53.83
2023-02-01T06:32:55.081Z,54.58
2023-02-01T06:35:19.717Z,48.70
2023-02-01T06:37:44.696Z,46.45
2023-02-01T06:40:10.274Z,42.35
2023-02-01T06:42:34.790Z,44.50
2023-02-01T06:45:00.740Z,39.05
2023-02-01T06:47:26.870Z,40.88
2023-02-01T06:49:51.480Z,33.25
2023-02-01T06:52:15.946Z,35.85
2023-02-01T06:54:40.468Z,32.40
2023-02-01T06:57:05.097Z,29.00
2023-02-01T06:59:32.641Z,26.23
2023-02-01T07:01:58.763Z,31.33
2023-02-01T07:04:23.354Z,27.10
2023-02-01T07:06:47.710Z,31.88
2023-02-01T07:09:13.505Z,28.95
2023-02-01T07:11:40.383Z,32.40
2023-02-01T07:14:05.134Z,26.80
2023-02-01T07:16:33.411Z,29.45
2023-02-01T07:19:07.466Z,30.75
2023-02-01T07:21:32.184Z,30.23
2023-02-01T07:23:56.974Z,32.90
2023-02-01T07:26:21.620Z,34.90
2023-02-01T07:28:46.192Z,32.63
2023-02-01T07:31:13.254Z,32.95
2023-02-01T07:33:38.202Z,33.05
2023-02-01T07:36:07.132Z,29.55
2023-02-01T07:38:31.827Z,30.77
2023-02-01T07:40:59.993Z,34.17
2023-02-01T07:43:24.870Z,31.75
2023-02-01T07:45:54.211Z,30.20
2023-02-01T07:48:19.285Z,27.55
2023-02-01T07:50:43.967Z,37.28
2023-02-01T07:53:12.418Z,34.45
2023-02-01T07:55:40.434Z,32.78
2023-02-01T07:58:04.816Z,41.05
2023-02-01T08:00:46.660Z,39.38
2023-02-01T08:03:11.295Z,33.80
2023-02-01T08:05:38.093Z,36.00
2023-02-01T08:08:02.811Z,36.17
2023-02-01T08:10:28.989Z,32.95
2023-02-01T08:12:53.815Z,32.83
2023-02-01T08:15:18.632Z,31.77
2023-02-01T08:17:43.227Z,36.60
2023-02-01T08:20:08.936Z,34.15
2023-02-01T08:22:34.690Z,39.55
2023-02-01T08:25:02.439Z,36.30
2023-02-01T08:27:28.715Z,32.92
2023-02-01T08:29:54.521Z,35.47
2023-02-01T08:32:19.309Z,33.33
2023-02-01T08:34:43.891Z,36.50
2023-02-01T08:37:08.467Z,35.53
2023-02-01T08:39:32.968Z,31.23
2023-02-01T08:42:14.827Z,37.97
2023-02-01T08:44:41.252Z,39.17
2023-02-01T08:47:06.593Z,35.83
2023-02-01T08:49:31.115Z,28.23
2023-02-01T08:51:58.616Z,32.33
2023-02-01T08:56:50.303Z,30.83
2023-02-01T08:59:14.939Z,32.45
2023-02-01T09:01:40.999Z,33.10
2023-02-01T09:04:05.611Z,34.22
2023-02-01T09:06:30.179Z,39.97
2023-02-01T09:08:54.777Z,36.20
2023-02-01T09:11:21.582Z,36.65
2023-02-01T09:13:46.426Z,32.20
2023-02-01T09:16:11.435Z,34.83
2023-02-01T09:18:45.788Z,32.65
2023-02-01T09:21:20.330Z,31.80
2023-02-01T09:23:45.163Z,33.42
2023-02-01T09:26:15.009Z,35.22
2023-02-01T09:31:04.722Z,38.08
2023-02-01T09:33:30.545Z,31.10
2023-02-01T09:35:59.865Z,30.38
2023-02-01T09:38:26.695Z,32.83
2023-02-01T09:40:51.119Z,27.05
2023-02-01T09:43:27.953Z,29.25
2023-02-01T09:46:01.951Z,25.85
2023-02-01T09:48:33.294Z,27.70
2023-02-01T09:51:01.503Z,25.98
2023-02-01T09:53:31.635Z,26.40
2023-02-01T09:55:59.219Z,22.40
2023-02-01T09:58:31.566Z,24.45
2023-02-01T10:00:59.320Z,21.17
2023-02-01T10:03:27.823Z,24.20
2023-02-01T10:06:18.472Z,20.08
2023-02-01T10:09:01.300Z,18.20
2023-02-01T10:11:49.534Z,17.88
2023-02-01T10:14:23.238Z,21.88
2023-02-01T10:16:59.263Z,17.63
2023-02-01T10:19:41.157Z,20.75
2023-02-01T10:22:09.112Z,18.48
2023-02-01T10:25:01.524Z,21.30
2023-02-01T10:27:35.558Z,17.95
2023-02-01T10:30:04.149Z,15.65
2023-02-01T10:32:34.906Z,17.35
2023-02-01T10:35:02.027Z,17.08
2023-02-01T10:37:31.319Z,16.80
2023-02-01T10:39:58.837Z,18.73
2023-02-01T10:42:26.373Z,18.23
2023-02-01T10:44:51.316Z,14.55
2023-02-01T10:47:16.354Z,17.42
2023-02-01T10:49:45.791Z,18.02
2023-02-01T10:52:15.336Z,20.35
2023-02-01T10:54:41.273Z,20.17
2023-02-01T10:57:10.402Z,20.58
2023-02-01T10:59:37.794Z,20.40
2023-02-01T11:02:05.306Z,22.83
2023-02-01T11:04:35.143Z,23.60
2023-02-01T11:07:09.633Z,21.85
2023-02-01T11:09:34.868Z,24.85
2023-02-01T11:12:01.302Z,25.95
2023-02-01T11:14:38.177Z,26.65
2023-02-01T11:17:04.412Z,24.40
2023-02-01T11:19:29.766Z,26.50
2023-02-01T11:21:56.740Z,22.77
2023-02-01T11:24:26.036Z,26.33
2023-02-01T11:26:50.663Z,25.17
2023-02-01T11:29:20.731Z,20.48
2023-02-01T11:31:47.675Z,17.38
2023-02-01T11:34:16.690Z,18.27
2023-02-01T11:36:42.604Z,22.38
2023-02-01T11:39:19.819Z,18.55
2023-02-01T11:41:46.385Z,18.25
2023-02-01T11:44:23.168Z,16.60
2023-02-01T11:46:49.090Z,16.00
2023-02-01T11:49:22.710Z,19.15
2023-02-01T11:51:55.101Z,17.95
2023-02-01T11:54:39.846Z,19.48
2023-02-01T11:57:20.062Z,18.75
2023-02-01T12:00:01.454Z,19.30
2023-02-01T12:03:09.281Z,17.75
2023-02-01T12:10:50.308Z,15.23
2023-02-01T12:13:28.141Z,13.27
2023-02-01T12:16:07.025Z,17.05
2023-02-01T12:18:46.880Z,11.38
2023-02-01T12:21:44.339Z,14.57
2023-02-01T12:24:35.027Z,13.93
2023-02-01T12:27:12.902Z,14.20
2023-02-01T12:30:04.744Z,14.40
2023-02-01T12:32:46.300Z,15.10
2023-02-01T12:35:29.552Z,15.40
2023-02-01T12:38:17.765Z,17.55
2023-02-01T12:40:59.310Z,16.15
2023-02-01T12:43:36.347Z,17.17
2023-02-01T12:46:06.450Z,15.82
2023-02-01T12:48:35.801Z,16.70
2023-02-01T12:51:05.300Z,13.20
2023-02-01T12:53:36.718Z,12.20
2023-02-01T12:56:08.686Z,14.73
2023-02-01T12:58:41.079Z,18.08
2023-02-01T13:01:10.130Z,15.13
2023-02-01T13:03:40.707Z,13.57
2023-02-01T13:06:10.607Z,14.52
2023-02-01T13:08:53.776Z,12.95
2023-02-01T13:11:27.136Z,12.20
2023-02-01T13:14:02.112Z,16.10
2023-02-01T13:16:30.577Z,14.10
2023-02-01T13:18:59.850Z,14.13
2023-02-01T13:21:28.684Z,14.13
2023-02-01T13:23:54.107Z,14.80
2023-02-01T13:26:20.081Z,12.18
2023-02-01T13:28:49.167Z,12.75
2023-02-01T13:31:31.391Z,11.07
2023-02-01T13:34:28.402Z,13.07
2023-02-01T13:37:07.500Z,11.35
2023-02-01T13:39:49.965Z,12.02
2023-02-01T13:42:32.103Z,12.32
2023-02-01T13:45:02.064Z,13.82
2023-02-01T13:47:31.501Z,16.42
2023-02-01T13:49:59.850Z,14.15
2023-02-01T13:52:29.284Z,12.75
2023-02-01T13:55:05.850Z,11.35
2023-02-01T13:57:39.735Z,11.07
2023-02-01T14:00:25.968Z,18.02
2023-02-01T14:03:17.105Z,14.57
2023-02-01T14:06:05.300Z,14.45
2023-02-01T14:08:54.088Z,17.40
2023-02-01T14:11:37.721Z,16.00
2023-02-01T14:14:44.104Z,16.17
2023-02-01T14:17:41.909Z,13.10
2023-02-01T14:20:44.940Z,15.57
2023-02-01T14:23:16.183Z,15.15
2023-02-01T14:25:41.709Z,11.52
2023-02-01T14:28:13.890Z,9.75
2023-02-01T14:30:40.047Z,15.50
2023-02-01T14:33:20.992Z,13.30
2023-02-01T14:35:55.627Z,13.60
2023-02-01T14:38:23.820Z,13.18
2023-02-01T14:40:48.330Z,14.23
2023-02-01T14:43:29.176Z,11.98
2023-02-01T14:45:59.334Z,15.40
2023-02-01T14:48:48.288Z,14.25
2023-02-01T14:51:16.752Z,21.93
2023-02-01T14:53:44.126Z,12.85
2023-02-01T14:56:12.916Z,12.98
2023-02-01T14:58:43.244Z,11.90
2023-02-01T15:01:23.884Z,13.45
2023-02-01T15:03:57.987Z,14.68
2023-02-01T15:06:38.631Z,16.30
2023-02-01T15:09:10.516Z,17.23
2023-02-01T15:11:55.404Z,16.52
2023-02-01T15:14:20.168Z,20.45
2023-02-01T15:16:51.094Z,20.33
2023-02-01T15:19:16.876Z,20.70
2023-02-01T15:21:50.007Z,18.10
2023-02-01T15:24:16.050Z,15.50
2023-02-01T15:26:40.977Z,15.55
2023-02-01T15:29:05.618Z,16.58
2023-02-01T15:31:38.835Z,15.73
2023-02-01T15:34:05.667Z,15.43
2023-02-01T15:36:30.161Z,19.42
2023-02-01T15:39:21.301Z,22.27
2023-02-01T15:41:48.659Z,17.60
2023-02-01T15:44:20.076Z,21.95
2023-02-01T15:46:48.149Z,22.85
2023-02-01T15:49:23.198Z,20.63
2023-02-01T15:51:49.883Z,23.75
2023-02-01T15:54:21.070Z,27.45
2023-02-01T15:56:49.920Z,27.92
2023-02-01T15:59:19.762Z,27.02
2023-02-01T16:04:21.083Z,30.77
2023-02-01T16:06:51.602Z,30.33
2023-02-01T16:09:17.875Z,30.98
2023-02-01T16:11:54.415Z,30.75
2023-02-01T16:14:19.083Z,33.25
2023-02-01T16:16:45.521Z,30.80
2023-02-01T16:19:10.748Z,31.17
2023-02-01T16:21:37.098Z,31.50
2023-02-01T16:24:04.969Z,33.00
2023-02-01T16:26:29.766Z,30.88
2023-02-01T16:28:54.493Z,32.17
2023-02-01T16:31:24.084Z,40.00
2023-02-01T16:33:51.105Z,37.42
2023-02-01T16:36:15.884Z,35.53
2023-02-01T16:38:43.090Z,39.75
2023-02-01T16:41:09.807Z,38.58
2023-02-01T16:43:34.434Z,37.50
2023-02-01T16:46:03.743Z,46.95
2023-02-01T16:48:30.998Z,40.10
2023-02-01T16:50:59.712Z,46.63
2023-02-01T16:53:25.886Z,51.65
2023-02-01T16:55:53.843Z,44.38
2023-02-01T16:58:19.124Z,47.17
2023-02-01T17:00:43.726Z,41.10
2023-02-01T17:03:08.278Z,49.90
2023-02-01T17:05:33.876Z,50.22
2023-02-01T17:08:00.813Z,46.45
2023-02-01T17:10:33.742Z,47.60
2023-02-01T17:13:00.825Z,43.83
2023-02-01T17:15:26.180Z,42.00
2023-02-01T17:17:55.223Z,39.53
2023-02-01T17:20:22.948Z,40.38
2023-02-01T17:22:47.568Z,37.55
2023-02-01T17:25:17.853Z,46.15
2023-02-01T17:27:42.693Z,37.53
2023-02-01T17:30:11.597Z,36.70
2023-02-01T17:32:36.199Z,36.40
2023-02-01T17:35:02.024Z,44.08
2023-02-01T17:37:29.785Z,37.30
2023-02-01T17:39:57.180Z,31.42
2023-02-01T17:42:21.964Z,36.45
2023-02-01T17:44:46.579Z,36.08
2023-02-01T17:47:12.598Z,33.25
2023-02-01T17:49:39.017Z,33.95
2023-02-01T17:52:04.017Z,29.00
2023-02-01T17:54:28.576Z,24.98
2023-02-01T17:56:53.473Z,29.05
2023-02-01T17:59:18.710Z,25.90
2023-02-01T18:01:44.168Z,27.85
2023-02-01T18:04:13.648Z,30.90
2023-02-01T18:06:38.727Z,30.27
2023-02-01T18:09:03.707Z,55.58
2023-02-01T18:11:30.316Z,46.78
2023-02-01T18:13:55.310Z,63.10
2023-02-01T18:16:22.598Z,66.05
2023-02-01T18:18:47.354Z,82.78
2023-02-01T18:21:13.982Z,136.30
2023-02-01T18:23:38.784Z,151.05
2023-02-01T18:26:04.319Z,130.18
2023-02-01T18:28:28.752Z,96.90
2023-02-01T18:30:53.453Z,52.25
2023-02-01T18:33:19.965Z,39.17
2023-02-01T18:35:44.894Z,41.72
2023-02-01T18:38:11.743Z,41.30
2023-02-01T18:40:38.742Z,36.92
2023-02-01T18:43:03.809Z,34.22
2023-02-01T18:45:33.776Z,33.92
2023-02-01T18:50:23.644Z,43.97
2023-02-01T18:52:48.704Z,32.30
2023-02-01T18:55:16.456Z,31.48
2023-02-01T18:57:42.305Z,29.13
2023-02-01T19:00:10.534Z,26.90
2023-02-01T19:02:35.464Z,33.83
2023-02-01T19:05:01.585Z,27.73
2023-02-01T19:07:27.591Z,33.58
2023-02-01T19:09:52.259Z,27.58
2023-02-01T19:12:18.496Z,29.23
2023-02-01T19:14:44.140Z,29.90
2023-02-01T19:17:08.911Z,32.38
2023-02-01T19:19:33.455Z,30.80
2023-02-01T19:21:59.311Z,33.85
2023-02-01T19:24:28.101Z,33.33
2023-02-01T19:26:53.033Z,35.25
2023-02-01T19:29:19.017Z,30.95
2023-02-01T19:31:47.640Z,36.13
2023-02-01T19:34:12.375Z,34.03
2023-02-01T19:36:42.441Z,31.60
2023-02-01T19:39:09.801Z,30.02
2023-02-01T19:41:34.447Z,31.88
2023-02-01T19:43:59.448Z,28.13
2023-02-01T19:46:25.501Z,31.70
2023-02-01T19:48:50.068Z,28.42
2023-02-01T19:51:14.556Z,34.58
2023-02-01T19:53:39.042Z,27.95
2023-02-01T19:56:03.831Z,37.05
2023-02-01T19:58:28.814Z,36.63
2023-02-01T20:00:54.501Z,46.03
2023-02-01T20:03:20.296Z,42.67
2023-02-01T20:05:44.748Z,49.38
2023-02-01T20:08:09.132Z,46.25
2023-02-01T20:10:33.505Z,47.10
2023-02-01T20:12:58.172Z,41.88
2023-02-01T20:15:24.943Z,56.17
2023-02-01T20:17:49.652Z,50.83
2023-02-01T20:20:15.819Z,44.70
2023-02-01T20:22:40.243Z,44.83
2023-02-01T20:25:05.696Z,40.08
2023-02-01T20:27:31.025Z,39.30
2023-02-01T20:29:55.402Z,41.20
2023-02-01T20:32:20.135Z,39.90
2023-02-01T20:34:45.509Z,39.53
2023-02-01T20:37:11.351Z,39.90
2023-02-01T20:39:35.748Z,42.67
2023-02-01T20:42:00.099Z,43.17
2023-02-01T20:44:24.631Z,48.47
2023-02-01T20:46:49.525Z,49.05
2023-02-01T20:49:17.600Z,43.25
2023-02-01T20:51:42.885Z,44.70
2023-02-01T20:54:09.056Z,47.83
2023-02-01T20:56:33.370Z,44.42
2023-02-01T20:59:03.110Z,49.35
2023-02-01T21:01:27.550Z,49.55
2023-02-01T21:03:51.996Z,46.33
2023-02-01T21:06:16.501Z,44.75
2023-02-01T21:08:41.455Z,42.30
2023-02-01T21:11:10.147Z,42.17
2023-02-01T21:13:38.298Z,38.63
2023-02-01T21:16:02.872Z,37.88
2023-02-01T21:18:27.528Z,37.15
2023-02-01T21:20:52.425Z,42.75
2023-02-01T21:23:18.036Z,39.03
2023-02-01T21:25:42.998Z,35.97
2023-02-01T21:28:08.855Z,36.10
2023-02-01T21:30:33.260Z,41.08
2023-02-01T21:32:59.626Z,35.33
2023-02-01T21:35:24.547Z,37.30
2023-02-01T21:37:49.053Z,35.20
2023-02-01T21:40:14.658Z,40.72
2023-02-01T21:42:40.467Z,36.63
2023-02-01T21:45:07.245Z,38.55
2023-02-01T21:47:31.828Z,38.95
2023-02-01T21:49:58.254Z,42.42
2023-02-01T21:52:23.332Z,36.90
2023-02-01T21:54:47.805Z,38.58
2023-02-01T21:57:13.200Z,37.47
2023-02-01T21:59:37.801Z,37.85
2023-02-01T22:02:04.849Z,39.83
2023-02-01T22:04:30.251Z,39.22
2023-02-01T22:06:54.567Z,39.53
2023-02-01T22:09:21.264Z,34.22
2023-02-01T22:11:45.889Z,39.85
2023-02-01T22:14:10.461Z,36.92
2023-02-01T22:16:34.989Z,41.90
2023-02-01T22:19:00.863Z,37.10
2023-02-01T22:21:25.317Z,42.35
2023-02-01T22:23:54.364Z,38.90
2023-02-01T22:26:18.853Z,41.20
2023-02-01T22:28:43.381Z,39.20
2023-02-01T22:31:10.359Z,39.40
2023-02-01T22:33:35.450Z,38.20
2023-02-01T22:36:01.461Z,42.95
2023-02-01T22:38:25.798Z,42.10
2023-02-01T22:40:56.062Z,40.38
2023-02-01T22:43:20.567Z,40.25
2023-02-01T22:45:45.103Z,44.47
2023-02-01T22:48:09.566Z,39.13
2023-02-01T22:50:33.951Z,39.15
2023-02-01T22:52:59.645Z,37.15
2023-02-01T22:55:24.563Z,36.88
2023-02-01T22:57:49.203Z,38.88
2023-02-01T23:00:15.515Z,37.53
2023-02-01T23:02:42.728Z,38.75
2023-02-01T23:05:07.363Z,39.90
2023-02-01T23:07:31.855Z,39.53
2023-02-01T23:09:57.699Z,45.85
2023-02-01T23:12:22.078Z,44.53
2023-02-01T23:15:00.243Z,40.40
2023-02-01T23:17:25.715Z,49.38
2023-02-01T23:19:50.197Z,47.20
2023-02-01T23:22:14.618Z,47.45
2023-02-01T23:24:39.008Z,44.97
2023-02-01T23:27:05.066Z,41.42
2023-02-01T23:29:29.751Z,42.72
2023-02-01T23:31:54.150Z,37.20
2023-02-01T23:34:18.521Z,39.50
2023-02-01T23:36:43.049Z,39.97
2023-02-01T23:39:07.446Z,40.88
2023-02-01T23:41:32.074Z,41.53
2023-02-01T23:43:59.598Z,38.85
2023-02-01T23:46:24.236Z,35.15
2023-02-01T23:48:51.079Z,33.08
2023-02-01T23:51:16.629Z,35.78
2023-02-01T23:53:41.175Z,32.55
2023-02-01T23:56:06.693Z,37.30
2023-02-01T23:58:31.140Z,36.17
